sensor_id;sensor_type;location;lat;lon;timestamp;temperature;humidity
33149;DHT22;19506;51.040;3.856;2022-12-18T00:01:26;14.90;99.90
33149;DHT22;19506;51.040;3.856;2022-12-18T00:03:53;15.00;99.90
33149;DHT22;19506;51.040;3.856;2022-12-18T00:06:20;14.90;99.90
33149;DHT22;19506;51.040;3.856;2022-12-18T00:08:47;14.90;99.90
33149;DHT22;19506;51.040;3.856;2022-12-18T00:11:15;14.90;99.90
33149;DHT22;19506;51.040;3.856;2022-12-18T00:13:42;14.90;99.90
33149;DHT22;19506;51.040;3.856;2022-12-18T00:16:15;14.90;99.90
33149;DHT22;19506;51.040;3.856;2022-12-18T00:18:42;14.90;99.90
33149;DHT22;19506;51.040;3.856;2022-12-18T00:21:09;14.90;99.90
33149;DHT22;19506;51.040;3.856;2022-12-18T00:23:36;14.90;99.90
33149;DHT22;19506;51.040;3.856;2022-12-18T00:26:04;14.80;99.90
33149;DHT22;19506;51.040;3.856;2022-12-18T00:28:30;14.80;99.90
33149;DHT22;19506;51.040;3.856;2022-12-18T00:31:04;14.80;99.90
33149;DHT22;19506;51.040;3.856;2022-12-18T00:33:30;14.80;99.90
33149;DHT22;19506;51.040;3.856;2022-12-18T00:36:00;14.80;99.90
33149;DHT22;19506;51.040;3.856;2022-12-18T00:38:25;14.80;99.90
33149;DHT22;19506;51.040;3.856;2022-12-18T00:40:51;14.80;99.90
33149;DHT22;19506;51.040;3.856;2022-12-18T00:43:16;14.80;99.90
33149;DHT22;19506;51.040;3.856;2022-12-18T00:45:42;14.80;99.90
33149;DHT22;19506;51.040;3.856;2022-12-18T00:48:08;14.80;99.90
33149;DHT22;19506;51.040;3.856;2022-12-18T00:50:33;14.80;99.90
33149;DHT22;19506;51.040;3.856;2022-12-18T00:52:59;14.80;99.90
33149;DHT22;19506;51.040;3.856;2022-12-18T00:55:25;14.80;99.90
33149;DHT22;19506;51.040;3.856;2022-12-18T00:57:51;14.80;99.90
33149;DHT22;19506;51.040;3.856;2022-12-18T01:00:18;14.80;99.90
33149;DHT22;19506;51.040;3.856;2022-12-18T01:02:43;14.70;99.90
33149;DHT22;19506;51.040;3.856;2022-12-18T01:05:10;14.70;99.90
33149;DHT22;19506;51.040;3.856;2022-12-18T01:07:36;14.70;99.90
33149;DHT22;19506;51.040;3.856;2022-12-18T01:10:02;14.70;99.90
33149;DHT22;19506;51.040;3.856;2022-12-18T01:12:28;14.70;99.90
33149;DHT22;19506;51.040;3.856;2022-12-18T01:14:54;14.70;99.90
33149;DHT22;19506;51.040;3.856;2022-12-18T01:17:19;14.70;99.90
33149;DHT22;19506;51.040;3.856;2022-12-18T01:19:45;14.70;99.90
33149;DHT22;19506;51.040;3.856;2022-12-18T01:22:10;14.70;99.90
33149;DHT22;19506;51.040;3.856;2022-12-18T01:24:36;14.70;99.90
33149;DHT22;19506;51.040;3.856;2022-12-18T01:27:01;14.70;99.90
33149;DHT22;19506;51.040;3.856;2022-12-18T01:29:27;14.60;99.90
33149;DHT22;19506;51.040;3.856;2022-12-18T01:31:54;14.60;99.90
33149;DHT22;19506;51.040;3.856;2022-12-18T01:34:20;14.60;99.90
33149;DHT22;19506;51.040;3.856;2022-12-18T01:36:45;14.60;99.90
33149;DHT22;19506;51.040;3.856;2022-12-18T01:39:12;14.60;99.90
33149;DHT22;19506;51.040;3.856;2022-12-18T01:41:39;14.60;99.90
33149;DHT22;19506;51.040;3.856;2022-12-18T01:47:21;14.60;99.90
33149;DHT22;19506;51.040;3.856;2022-12-18T01:49:47;14.60;99.90
33149;DHT22;19506;51.040;3.856;2022-12-18T01:52:13;14.60;99.90
33149;DHT22;19506;51.040;3.856;2022-12-18T01:54:39;14.60;99.90
33149;DHT22;19506;51.040;3.856;2022-12-18T01:57:04;14.60;99.90
33149;DHT22;19506;51.040;3.856;2022-12-18T01:59:31;14.60;99.90
33149;DHT22;19506;51.040;3.856;2022-12-18T02:01:58;14.60;99.90
33149;DHT22;19506;51.040;3.856;2022-12-18T02:04:26;14.60;99.90
33149;DHT22;19506;51.040;3.856;2022-12-18T02:07:07;14.60;99.90
33149;DHT22;19506;51.040;3.856;2022-12-18T02:10:03;14.60;99.90
33149;DHT22;19506;51.040;3.856;2022-12-18T02:26:50;14.50;99.90
33149;DHT22;19506;51.040;3.856;2022-12-18T02:29:33;14.40;99.90
33149;DHT22;19506;51.040;3.856;2022-12-18T02:32:00;14.40;99.90
33149;DHT22;19506;51.040;3.856;2022-12-18T02:34:29;14.40;99.90
33149;DHT22;19506;51.040;3.856;2022-12-18T02:36:58;14.40;99.90
33149;DHT22;19506;51.040;3.856;2022-12-18T02:39:27;14.40;99.90
33149;DHT22;19506;51.040;3.856;2022-12-18T02:41:54;14.40;99.90
33149;DHT22;19506;51.040;3.856;2022-12-18T02:44:19;14.40;99.90
33149;DHT22;19506;51.040;3.856;2022-12-18T02:46:48;14.40;99.90
33149;DHT22;19506;51.040;3.856;2022-12-18T02:57:45;14.40;99.90
33149;DHT22;19506;51.040;3.856;2022-12-18T03:00:18;14.40;99.90
33149;DHT22;19506;51.040;3.856;2022-12-18T03:02:53;14.40;99.90
33149;DHT22;19506;51.040;3.856;2022-12-18T03:05:31;14.40;99.90
33149;DHT22;19506;51.040;3.856;2022-12-18T03:10:30;14.30;99.90
33149;DHT22;19506;51.040;3.856;2022-12-18T03:13:08;14.30;99.90
33149;DHT22;19506;51.040;3.856;2022-12-18T03:15:47;14.30;99.90
33149;DHT22;19506;51.040;3.856;2022-12-18T03:18:24;14.30;99.90
33149;DHT22;19506;51.040;3.856;2022-12-18T03:20:53;14.30;99.90
33149;DHT22;19506;51.040;3.856;2022-12-18T03:23:24;14.30;99.90
33149;DHT22;19506;51.040;3.856;2022-12-18T03:25:55;14.30;99.90
33149;DHT22;19506;51.040;3.856;2022-12-18T03:28:23;14.30;99.90
33149;DHT22;19506;51.040;3.856;2022-12-18T03:30:52;14.30;99.90
33149;DHT22;19506;51.040;3.856;2022-12-18T03:33:27;14.30;99.90
33149;DHT22;19506;51.040;3.856;2022-12-18T03:35:54;14.30;99.90
33149;DHT22;19506;51.040;3.856;2022-12-18T03:38:19;14.20;99.90
33149;DHT22;19506;51.040;3.856;2022-12-18T03:46:26;14.20;99.90
33149;DHT22;19506;51.040;3.856;2022-12-18T03:49:00;14.20;99.90
33149;DHT22;19506;51.040;3.856;2022-12-18T03:51:42;14.20;99.90
33149;DHT22;19506;51.040;3.856;2022-12-18T03:54:10;14.20;99.90
33149;DHT22;19506;51.040;3.856;2022-12-18T03:56:42;14.20;99.90
33149;DHT22;19506;51.040;3.856;2022-12-18T03:59:11;14.20;99.90
33149;DHT22;19506;51.040;3.856;2022-12-18T04:01:42;14.20;99.90
33149;DHT22;19506;51.040;3.856;2022-12-18T04:04:10;14.20;99.90
33149;DHT22;19506;51.040;3.856;2022-12-18T04:06:37;14.20;99.90
33149;DHT22;19506;51.040;3.856;2022-12-18T04:09:04;14.20;99.90
33149;DHT22;19506;51.040;3.856;2022-12-18T04:11:30;14.20;99.90
33149;DHT22;19506;51.040;3.856;2022-12-18T04:13:56;14.20;99.90
33149;DHT22;19506;51.040;3.856;2022-12-18T04:16:25;14.10;99.90
33149;DHT22;19506;51.040;3.856;2022-12-18T04:18:51;14.20;99.90
33149;DHT22;19506;51.040;3.856;2022-12-18T04:21:17;14.20;99.90
33149;DHT22;19506;51.040;3.856;2022-12-18T04:23:42;14.10;99.90
33149;DHT22;19506;51.040;3.856;2022-12-18T04:26:08;14.10;99.90
33149;DHT22;19506;51.040;3.856;2022-12-18T04:28:33;14.10;99.90
33149;DHT22;19506;51.040;3.856;2022-12-18T04:30:59;14.10;99.90
33149;DHT22;19506;51.040;3.856;2022-12-18T04:33:24;14.10;99.90
33149;DHT22;19506;51.040;3.856;2022-12-18T04:35:50;14.10;99.90
33149;DHT22;19506;51.040;3.856;2022-12-18T04:38:16;14.00;99.90
33149;DHT22;19506;51.040;3.856;2022-12-18T04:40:41;14.10;99.90
33149;DHT22;19506;51.040;3.856;2022-12-18T04:43:07;14.20;99.90
33149;DHT22;19506;51.040;3.856;2022-12-18T04:45:33;14.40;99.90
33149;DHT22;19506;51.040;3.856;2022-12-18T04:48:02;14.60;99.90
33149;DHT22;19506;51.040;3.856;2022-12-18T04:50:28;14.90;99.90
33149;DHT22;19506;51.040;3.856;2022-12-18T04:52:54;15.10;99.90
33149;DHT22;19506;51.040;3.856;2022-12-18T04:55:20;15.30;99.90
33149;DHT22;19506;51.040;3.856;2022-12-18T04:57:45;15.50;99.90
33149;DHT22;19506;51.040;3.856;2022-12-18T05:00:11;15.60;99.90
33149;DHT22;19506;51.040;3.856;2022-12-18T05:02:37;15.80;99.90
33149;DHT22;19506;51.040;3.856;2022-12-18T05:05:03;16.00;99.90
33149;DHT22;19506;51.040;3.856;2022-12-18T05:07:28;16.30;99.90
33149;DHT22;19506;51.040;3.856;2022-12-18T05:09:54;16.50;99.90
33149;DHT22;19506;51.040;3.856;2022-12-18T05:12:20;16.60;99.90
33149;DHT22;19506;51.040;3.856;2022-12-18T05:14:45;16.60;99.90
33149;DHT22;19506;51.040;3.856;2022-12-18T05:17:11;16.60;99.90
33149;DHT22;19506;51.040;3.856;2022-12-18T05:19:37;16.60;99.90
33149;DHT22;19506;51.040;3.856;2022-12-18T05:22:03;16.50;99.90
33149;DHT22;19506;51.040;3.856;2022-12-18T05:24:29;16.60;99.90
33149;DHT22;19506;51.040;3.856;2022-12-18T05:26:54;16.60;99.90
33149;DHT22;19506;51.040;3.856;2022-12-18T05:31:47;16.60;99.90
33149;DHT22;19506;51.040;3.856;2022-12-18T05:34:12;16.50;99.90
33149;DHT22;19506;51.040;3.856;2022-12-18T05:36:38;16.50;99.90
33149;DHT22;19506;51.040;3.856;2022-12-18T05:39:04;16.60;99.90
33149;DHT22;19506;51.040;3.856;2022-12-18T05:41:29;16.50;99.90
33149;DHT22;19506;51.040;3.856;2022-12-18T05:43:55;16.50;99.90
33149;DHT22;19506;51.040;3.856;2022-12-18T05:46:21;16.40;99.90
33149;DHT22;19506;51.040;3.856;2022-12-18T05:48:46;16.40;99.90
33149;DHT22;19506;51.040;3.856;2022-12-18T05:51:17;16.40;99.90
33149;DHT22;19506;51.040;3.856;2022-12-18T05:53:43;16.40;99.90
33149;DHT22;19506;51.040;3.856;2022-12-18T05:56:10;16.40;99.90
33149;DHT22;19506;51.040;3.856;2022-12-18T05:58:36;16.30;99.90
33149;DHT22;19506;51.040;3.856;2022-12-18T06:03:38;16.30;99.90
33149;DHT22;19506;51.040;3.856;2022-12-18T06:06:12;16.30;99.90
33149;DHT22;19506;51.040;3.856;2022-12-18T06:08:37;16.30;99.90
33149;DHT22;19506;51.040;3.856;2022-12-18T06:11:03;16.20;99.90
33149;DHT22;19506;51.040;3.856;2022-12-18T06:13:28;16.20;99.90
33149;DHT22;19506;51.040;3.856;2022-12-18T06:15:54;16.20;99.90
33149;DHT22;19506;51.040;3.856;2022-12-18T06:18:19;16.10;99.90
33149;DHT22;19506;51.040;3.856;2022-12-18T06:20:53;16.20;99.90
33149;DHT22;19506;51.040;3.856;2022-12-18T06:23:19;16.20;99.90
33149;DHT22;19506;51.040;3.856;2022-12-18T06:25:44;16.10;99.90
33149;DHT22;19506;51.040;3.856;2022-12-18T06:28:10;16.10;99.90
33149;DHT22;19506;51.040;3.856;2022-12-18T06:30:35;16.00;99.90
33149;DHT22;19506;51.040;3.856;2022-12-18T06:33:01;16.10;99.90
33149;DHT22;19506;51.040;3.856;2022-12-18T06:35:27;16.00;99.90
33149;DHT22;19506;51.040;3.856;2022-12-18T06:37:53;16.00;99.90
33149;DHT22;19506;51.040;3.856;2022-12-18T06:40:18;16.00;99.90
33149;DHT22;19506;51.040;3.856;2022-12-18T06:42:44;16.00;99.90
33149;DHT22;19506;51.040;3.856;2022-12-18T06:45:10;16.00;99.90
33149;DHT22;19506;51.040;3.856;2022-12-18T06:47:36;16.00;99.90
33149;DHT22;19506;51.040;3.856;2022-12-18T06:50:02;16.00;99.90
33149;DHT22;19506;51.040;3.856;2022-12-18T06:52:28;16.00;99.90
33149;DHT22;19506;51.040;3.856;2022-12-18T06:54:53;15.90;99.90
33149;DHT22;19506;51.040;3.856;2022-12-18T06:57:19;15.80;99.90
33149;DHT22;19506;51.040;3.856;2022-12-18T06:59:44;15.80;99.90
33149;DHT22;19506;51.040;3.856;2022-12-18T07:02:12;15.80;99.90
33149;DHT22;19506;51.040;3.856;2022-12-18T07:04:38;15.80;99.90
33149;DHT22;19506;51.040;3.856;2022-12-18T07:07:03;15.80;99.90
33149;DHT22;19506;51.040;3.856;2022-12-18T07:09:29;15.70;99.90
33149;DHT22;19506;51.040;3.856;2022-12-18T07:11:54;15.60;99.90
33149;DHT22;19506;51.040;3.856;2022-12-18T07:14:20;15.60;99.90
33149;DHT22;19506;51.040;3.856;2022-12-18T07:16:46;15.60;99.90
33149;DHT22;19506;51.040;3.856;2022-12-18T07:19:11;15.60;99.90
33149;DHT22;19506;51.040;3.856;2022-12-18T07:21:37;15.60;99.90
33149;DHT22;19506;51.040;3.856;2022-12-18T07:24:03;15.50;99.90
33149;DHT22;19506;51.040;3.856;2022-12-18T07:26:28;15.50;99.90
33149;DHT22;19506;51.040;3.856;2022-12-18T07:28:55;15.60;99.90
33149;DHT22;19506;51.040;3.856;2022-12-18T07:31:22;15.50;99.90
33149;DHT22;19506;51.040;3.856;2022-12-18T07:33:48;15.50;99.90
33149;DHT22;19506;51.040;3.856;2022-12-18T07:36:14;15.50;99.90
33149;DHT22;19506;51.040;3.856;2022-12-18T07:38:41;15.50;99.90
33149;DHT22;19506;51.040;3.856;2022-12-18T07:41:11;15.50;99.90
33149;DHT22;19506;51.040;3.856;2022-12-18T07:43:38;15.70;99.90
33149;DHT22;19506;51.040;3.856;2022-12-18T07:46:04;15.80;99.90
33149;DHT22;19506;51.040;3.856;2022-12-18T07:48:30;15.80;99.90
33149;DHT22;19506;51.040;3.856;2022-12-18T07:50:59;15.80;99.90
33149;DHT22;19506;51.040;3.856;2022-12-18T07:53:25;15.80;99.90
33149;DHT22;19506;51.040;3.856;2022-12-18T07:55:58;15.80;99.90
33149;DHT22;19506;51.040;3.856;2022-12-18T07:58:24;15.80;99.90
33149;DHT22;19506;51.040;3.856;2022-12-18T08:00:51;15.80;99.90
33149;DHT22;19506;51.040;3.856;2022-12-18T08:03:18;15.80;99.90
33149;DHT22;19506;51.040;3.856;2022-12-18T08:05:43;15.80;99.90
33149;DHT22;19506;51.040;3.856;2022-12-18T08:08:09;15.80;99.90
33149;DHT22;19506;51.040;3.856;2022-12-18T08:10:35;15.90;99.90
33149;DHT22;19506;51.040;3.856;2022-12-18T08:13:01;15.90;99.90
33149;DHT22;19506;51.040;3.856;2022-12-18T08:15:26;15.90;99.90
33149;DHT22;19506;51.040;3.856;2022-12-18T08:17:52;15.90;99.90
33149;DHT22;19506;51.040;3.856;2022-12-18T08:20:17;15.90;99.90
33149;DHT22;19506;51.040;3.856;2022-12-18T08:22:43;15.90;99.90
33149;DHT22;19506;51.040;3.856;2022-12-18T08:25:09;15.90;99.90
33149;DHT22;19506;51.040;3.856;2022-12-18T08:27:35;15.90;99.90
33149;DHT22;19506;51.040;3.856;2022-12-18T08:30:01;15.90;99.90
33149;DHT22;19506;51.040;3.856;2022-12-18T08:32:28;15.80;99.90
33149;DHT22;19506;51.040;3.856;2022-12-18T08:34:53;15.80;99.90
33149;DHT22;19506;51.040;3.856;2022-12-18T08:37:19;15.90;99.90
33149;DHT22;19506;51.040;3.856;2022-12-18T08:39:45;15.90;99.90
33149;DHT22;19506;51.040;3.856;2022-12-18T08:42:11;15.90;99.90
33149;DHT22;19506;51.040;3.856;2022-12-18T08:44:55;15.90;99.90
33149;DHT22;19506;51.040;3.856;2022-12-18T08:47:21;15.90;99.90
33149;DHT22;19506;51.040;3.856;2022-12-18T08:49:46;16.00;99.90
33149;DHT22;19506;51.040;3.856;2022-12-18T08:52:12;15.90;99.90
33149;DHT22;19506;51.040;3.856;2022-12-18T08:54:37;15.90;99.90
33149;DHT22;19506;51.040;3.856;2022-12-18T08:57:03;15.90;99.90
33149;DHT22;19506;51.040;3.856;2022-12-18T08:59:28;15.90;99.90
33149;DHT22;19506;51.040;3.856;2022-12-18T09:01:54;15.90;99.90
33149;DHT22;19506;51.040;3.856;2022-12-18T09:04:21;15.90;99.90
33149;DHT22;19506;51.040;3.856;2022-12-18T09:06:47;15.90;99.90
33149;DHT22;19506;51.040;3.856;2022-12-18T09:09:12;15.90;99.90
33149;DHT22;19506;51.040;3.856;2022-12-18T09:11:38;15.90;99.90
33149;DHT22;19506;51.040;3.856;2022-12-18T09:14:04;16.00;99.90
33149;DHT22;19506;51.040;3.856;2022-12-18T09:16:30;15.90;99.90
33149;DHT22;19506;51.040;3.856;2022-12-18T09:18:57;15.90;99.90
33149;DHT22;19506;51.040;3.856;2022-12-18T09:21:26;15.90;99.90
33149;DHT22;19506;51.040;3.856;2022-12-18T09:23:54;15.90;99.90
33149;DHT22;19506;51.040;3.856;2022-12-18T09:26:21;15.80;99.90
33149;DHT22;19506;51.040;3.856;2022-12-18T09:28:47;15.90;99.90
33149;DHT22;19506;51.040;3.856;2022-12-18T09:31:13;15.90;99.90
33149;DHT22;19506;51.040;3.856;2022-12-18T09:33:39;15.90;99.90
33149;DHT22;19506;51.040;3.856;2022-12-18T09:36:06;15.90;99.90
33149;DHT22;19506;51.040;3.856;2022-12-18T09:38:33;15.90;99.90
33149;DHT22;19506;51.040;3.856;2022-12-18T09:41:06;16.00;99.90
33149;DHT22;19506;51.040;3.856;2022-12-18T09:43:46;15.90;99.90
33149;DHT22;19506;51.040;3.856;2022-12-18T09:46:28;16.00;99.90
33149;DHT22;19506;51.040;3.856;2022-12-18T09:48:59;16.00;99.90
33149;DHT22;19506;51.040;3.856;2022-12-18T09:51:30;16.00;99.90
33149;DHT22;19506;51.040;3.856;2022-12-18T09:54:12;16.10;99.90
33149;DHT22;19506;51.040;3.856;2022-12-18T09:56:42;16.10;99.90
33149;DHT22;19506;51.040;3.856;2022-12-18T09:59:23;16.20;99.90
33149;DHT22;19506;51.040;3.856;2022-12-18T10:01:49;16.20;99.90
33149;DHT22;19506;51.040;3.856;2022-12-18T10:04:14;16.20;99.90
33149;DHT22;19506;51.040;3.856;2022-12-18T10:09:42;16.20;99.90
33149;DHT22;19506;51.040;3.856;2022-12-18T10:17:24;16.10;99.90
33149;DHT22;19506;51.040;3.856;2022-12-18T10:22:30;16.10;99.90
33149;DHT22;19506;51.040;3.856;2022-12-18T10:25:27;16.10;99.90
33149;DHT22;19506;51.040;3.856;2022-12-18T10:28:12;16.10;99.90
33149;DHT22;19506;51.040;3.856;2022-12-18T10:30:40;16.10;99.90
33149;DHT22;19506;51.040;3.856;2022-12-18T10:33:11;16.10;99.90
33149;DHT22;19506;51.040;3.856;2022-12-18T10:35:40;16.10;99.90
33149;DHT22;19506;51.040;3.856;2022-12-18T10:38:21;16.20;99.90
33149;DHT22;19506;51.040;3.856;2022-12-18T10:48:24;16.10;99.90
33149;DHT22;19506;51.040;3.856;2022-12-18T10:50:50;16.00;99.90
33149;DHT22;19506;51.040;3.856;2022-12-18T10:53:24;16.00;99.90
33149;DHT22;19506;51.040;3.856;2022-12-18T10:55:52;16.00;99.90
33149;DHT22;19506;51.040;3.856;2022-12-18T10:58:33;16.00;99.90
33149;DHT22;19506;51.040;3.856;2022-12-18T11:01:04;16.00;99.90
33149;DHT22;19506;51.040;3.856;2022-12-18T11:03:42;16.00;99.90
33149;DHT22;19506;51.040;3.856;2022-12-18T11:06:11;15.90;99.90
33149;DHT22;19506;51.040;3.856;2022-12-18T11:08:38;16.00;99.90
33149;DHT22;19506;51.040;3.856;2022-12-18T11:11:14;15.90;99.90
33149;DHT22;19506;51.040;3.856;2022-12-18T11:14:06;15.90;99.90
33149;DHT22;19506;51.040;3.856;2022-12-18T11:16:47;15.90;99.90
33149;DHT22;19506;51.040;3.856;2022-12-18T11:19:26;15.90;99.90
33149;DHT22;19506;51.040;3.856;2022-12-18T11:21:53;15.80;99.90
33149;DHT22;19506;51.040;3.856;2022-12-18T11:24:37;15.80;99.90
33149;DHT22;19506;51.040;3.856;2022-12-18T11:27:16;15.80;99.90
33149;DHT22;19506;51.040;3.856;2022-12-18T11:29:43;15.80;99.90
33149;DHT22;19506;51.040;3.856;2022-12-18T11:34:46;15.70;99.90
33149;DHT22;19506;51.040;3.856;2022-12-18T11:37:15;15.80;99.90
33149;DHT22;19506;51.040;3.856;2022-12-18T11:39:59;15.80;99.90
33149;DHT22;19506;51.040;3.856;2022-12-18T11:48:01;15.90;99.90
33149;DHT22;19506;51.040;3.856;2022-12-18T11:53:11;15.90;99.90
33149;DHT22;19506;51.040;3.856;2022-12-18T12:06:32;16.10;99.90
33149;DHT22;19506;51.040;3.856;2022-12-18T12:15:16;16.10;99.90
33149;DHT22;19506;51.040;3.856;2022-12-18T12:20:44;16.10;99.90
33149;DHT22;19506;51.040;3.856;2022-12-18T12:26:08;16.10;99.90
33149;DHT22;19506;51.040;3.856;2022-12-18T12:31:30;16.20;99.90
33149;DHT22;19506;51.040;3.856;2022-12-18T12:39:35;15.80;99.90
33149;DHT22;19506;51.040;3.856;2022-12-18T12:42:05;15.70;99.90
33149;DHT22;19506;51.040;3.856;2022-12-18T12:44:55;15.60;99.90
33149;DHT22;19506;51.040;3.856;2022-12-18T12:49:47;15.90;99.90
33149;DHT22;19506;51.040;3.856;2022-12-18T12:52:17;16.00;99.90
33149;DHT22;19506;51.040;3.856;2022-12-18T12:54:46;15.90;99.90
33149;DHT22;19506;51.040;3.856;2022-12-18T12:57:29;15.90;99.90
33149;DHT22;19506;51.040;3.856;2022-12-18T13:13:04;15.80;99.90
33149;DHT22;19506;51.040;3.856;2022-12-18T13:15:44;15.80;99.90
33149;DHT22;19506;51.040;3.856;2022-12-18T13:18:22;15.80;99.90
33149;DHT22;19506;51.040;3.856;2022-12-18T13:21:04;15.80;99.90
33149;DHT22;19506;51.040;3.856;2022-12-18T13:23:39;15.70;99.90
33149;DHT22;19506;51.040;3.856;2022-12-18T13:31:02;15.60;99.90
33149;DHT22;19506;51.040;3.856;2022-12-18T13:33:37;15.60;99.90
33149;DHT22;19506;51.040;3.856;2022-12-18T13:36:13;15.50;99.90
33149;DHT22;19506;51.040;3.856;2022-12-18T13:38:40;15.40;99.90
33149;DHT22;19506;51.040;3.856;2022-12-18T13:43:48;15.30;99.90
33149;DHT22;19506;51.040;3.856;2022-12-18T13:46:20;15.40;99.90
33149;DHT22;19506;51.040;3.856;2022-12-18T13:51:35;15.50;99.90
33149;DHT22;19506;51.040;3.856;2022-12-18T13:54:17;15.50;99.90
33149;DHT22;19506;51.040;3.856;2022-12-18T13:56:46;15.50;99.90
33149;DHT22;19506;51.040;3.856;2022-12-18T13:59:14;15.50;99.90
33149;DHT22;19506;51.040;3.856;2022-12-18T14:06:55;15.40;99.90
33149;DHT22;19506;51.040;3.856;2022-12-18T14:09:27;15.30;99.90
33149;DHT22;19506;51.040;3.856;2022-12-18T14:11:54;15.40;99.90
33149;DHT22;19506;51.040;3.856;2022-12-18T14:14:41;15.40;99.90
33149;DHT22;19506;51.040;3.856;2022-12-18T14:17:11;15.30;99.90
33149;DHT22;19506;51.040;3.856;2022-12-18T14:19:37;15.30;99.90
33149;DHT22;19506;51.040;3.856;2022-12-18T14:22:19;15.30;99.90
33149;DHT22;19506;51.040;3.856;2022-12-18T14:24:46;15.30;99.90
33149;DHT22;19506;51.040;3.856;2022-12-18T14:27:36;15.20;99.90
33149;DHT22;19506;51.040;3.856;2022-12-18T14:30:24;15.30;99.90
33149;DHT22;19506;51.040;3.856;2022-12-18T14:33:10;15.30;99.90
33149;DHT22;19506;51.040;3.856;2022-12-18T14:35:39;15.30;99.90
33149;DHT22;19506;51.040;3.856;2022-12-18T14:40:56;15.20;99.90
33149;DHT22;19506;51.040;3.856;2022-12-18T14:43:22;15.20;99.90
33149;DHT22;19506;51.040;3.856;2022-12-18T14:45:48;15.20;99.90
33149;DHT22;19506;51.040;3.856;2022-12-18T14:48:41;15.20;99.90
33149;DHT22;19506;51.040;3.856;2022-12-18T14:51:21;15.20;99.90
33149;DHT22;19506;51.040;3.856;2022-12-18T14:56:36;15.20;99.90
33149;DHT22;19506;51.040;3.856;2022-12-18T14:59:04;15.10;99.90
33149;DHT22;19506;51.040;3.856;2022-12-18T15:01:37;15.10;99.90
33149;DHT22;19506;51.040;3.856;2022-12-18T15:04:05;15.10;99.90
33149;DHT22;19506;51.040;3.856;2022-12-18T15:06:48;15.10;99.90
33149;DHT22;19506;51.040;3.856;2022-12-18T15:09:21;15.00;99.90
33149;DHT22;19506;51.040;3.856;2022-12-18T15:11:47;15.00;99.90
33149;DHT22;19506;51.040;3.856;2022-12-18T15:16:53;15.00;99.90
33149;DHT22;19506;51.040;3.856;2022-12-18T15:19:21;15.00;99.90
33149;DHT22;19506;51.040;3.856;2022-12-18T15:21:47;15.00;99.90
33149;DHT22;19506;51.040;3.856;2022-12-18T15:24:16;15.00;99.90
33149;DHT22;19506;51.040;3.856;2022-12-18T15:26:42;15.00;99.90
33149;DHT22;19506;51.040;3.856;2022-12-18T15:29:15;15.00;99.90
33149;DHT22;19506;51.040;3.856;2022-12-18T15:31:43;15.00;99.90
33149;DHT22;19506;51.040;3.856;2022-12-18T15:34:21;15.00;99.90
33149;DHT22;19506;51.040;3.856;2022-12-18T15:36:47;15.00;99.90
33149;DHT22;19506;51.040;3.856;2022-12-18T15:39:13;15.00;99.90
33149;DHT22;19506;51.040;3.856;2022-12-18T15:41:39;15.00;99.90
33149;DHT22;19506;51.040;3.856;2022-12-18T15:44:23;15.00;99.90
33149;DHT22;19506;51.040;3.856;2022-12-18T15:46:49;15.00;99.90
33149;DHT22;19506;51.040;3.856;2022-12-18T15:49:15;14.90;99.90
33149;DHT22;19506;51.040;3.856;2022-12-18T15:51:40;15.00;99.90
33149;DHT22;19506;51.040;3.856;2022-12-18T15:54:08;15.20;99.90
33149;DHT22;19506;51.040;3.856;2022-12-18T15:56:35;15.50;99.90
33149;DHT22;19506;51.040;3.856;2022-12-18T15:59:20;15.60;99.90
33149;DHT22;19506;51.040;3.856;2022-12-18T16:04:14;16.50;99.90
33149;DHT22;19506;51.040;3.856;2022-12-18T16:09:07;17.20;99.90
33149;DHT22;19506;51.040;3.856;2022-12-18T16:11:35;17.40;99.90
33149;DHT22;19506;51.040;3.856;2022-12-18T16:16:48;18.10;99.90
33149;DHT22;19506;51.040;3.856;2022-12-18T16:19:14;18.50;99.90
33149;DHT22;19506;51.040;3.856;2022-12-18T16:21:40;18.60;99.90
33149;DHT22;19506;51.040;3.856;2022-12-18T16:24:12;18.90;99.90
33149;DHT22;19506;51.040;3.856;2022-12-18T16:26:39;19.00;99.90
33149;DHT22;19506;51.040;3.856;2022-12-18T16:29:04;19.00;99.90
33149;DHT22;19506;51.040;3.856;2022-12-18T16:31:30;19.20;99.90
33149;DHT22;19506;51.040;3.856;2022-12-18T16:36:37;19.00;99.90
33149;DHT22;19506;51.040;3.856;2022-12-18T16:39:02;19.00;99.90
33149;DHT22;19506;51.040;3.856;2022-12-18T16:41:28;19.00;99.90
33149;DHT22;19506;51.040;3.856;2022-12-18T16:43:56;19.00;99.90
33149;DHT22;19506;51.040;3.856;2022-12-18T16:46:22;18.90;99.90
33149;DHT22;19506;51.040;3.856;2022-12-18T16:48:48;18.70;99.90
33149;DHT22;19506;51.040;3.856;2022-12-18T16:51:14;18.70;99.90
33149;DHT22;19506;51.040;3.856;2022-12-18T16:53:39;18.60;99.90
33149;DHT22;19506;51.040;3.856;2022-12-18T16:56:05;18.50;99.90
33149;DHT22;19506;51.040;3.856;2022-12-18T16:58:31;18.50;99.90
33149;DHT22;19506;51.040;3.856;2022-12-18T17:00:57;18.50;99.90
33149;DHT22;19506;51.040;3.856;2022-12-18T17:03:23;18.40;99.90
33149;DHT22;19506;51.040;3.856;2022-12-18T17:05:48;18.30;99.90
33149;DHT22;19506;51.040;3.856;2022-12-18T17:08:14;18.30;99.90
33149;DHT22;19506;51.040;3.856;2022-12-18T17:10:40;18.20;99.90
33149;DHT22;19506;51.040;3.856;2022-12-18T17:13:05;18.10;99.90
33149;DHT22;19506;51.040;3.856;2022-12-18T17:15:34;18.00;99.90
33149;DHT22;19506;51.040;3.856;2022-12-18T17:18:01;18.00;99.90
33149;DHT22;19506;51.040;3.856;2022-12-18T17:20:26;18.00;99.90
33149;DHT22;19506;51.040;3.856;2022-12-18T17:22:52;17.90;99.90
33149;DHT22;19506;51.040;3.856;2022-12-18T17:25:18;17.90;99.90
33149;DHT22;19506;51.040;3.856;2022-12-18T17:27:43;17.80;99.90
33149;DHT22;19506;51.040;3.856;2022-12-18T17:30:10;17.70;99.90
33149;DHT22;19506;51.040;3.856;2022-12-18T17:32:35;17.70;99.90
33149;DHT22;19506;51.040;3.856;2022-12-18T17:35:01;17.60;99.90
33149;DHT22;19506;51.040;3.856;2022-12-18T17:37:27;17.50;99.90
33149;DHT22;19506;51.040;3.856;2022-12-18T17:39:53;17.50;99.90
33149;DHT22;19506;51.040;3.856;2022-12-18T17:42:18;17.50;99.90
33149;DHT22;19506;51.040;3.856;2022-12-18T17:44:44;17.40;99.90
33149;DHT22;19506;51.040;3.856;2022-12-18T17:47:11;17.30;99.90
33149;DHT22;19506;51.040;3.856;2022-12-18T17:49:37;17.30;99.90
33149;DHT22;19506;51.040;3.856;2022-12-18T17:52:03;17.30;99.90
33149;DHT22;19506;51.040;3.856;2022-12-18T17:54:29;17.20;99.90
33149;DHT22;19506;51.040;3.856;2022-12-18T17:56:55;17.10;99.90
33149;DHT22;19506;51.040;3.856;2022-12-18T17:59:20;16.90;99.90
33149;DHT22;19506;51.040;3.856;2022-12-18T18:01:47;16.90;99.90
33149;DHT22;19506;51.040;3.856;2022-12-18T18:04:13;16.80;99.90
33149;DHT22;19506;51.040;3.856;2022-12-18T18:06:39;16.80;99.90
33149;DHT22;19506;51.040;3.856;2022-12-18T18:09:06;16.80;99.90